3PS4 weather

Mountain Hide-Away Airport
Millcreek, Pennsylvania, United States

Public forecast

Using degrees Fahrenheit for public forecast. Weather courtesy of forecast.io.

METAR (pilot weather report)

Closest report is University Park Airport, 9.8 nm (18.2 km) NE. Retrieved 2019/05/21 00:53 UTC (18 minutes ago):

KUNV 210053Z 29008G17KT 10SM FEW050 18/10 A2991

TAF (pilot weather forecast)

Closest forecast is University Park Airport, 9.8 nm (18.2 km) NE. Retrieved 2019/05/21 00:00 UTC (1 hour ago):

TAF KUNV 202357Z 2100/2124 28012G21KT P6SM SCT060 FM210200 31011KT P6SM SCT035 FM211300 33011G17KT P6SM SKC